Time;durP1;ratioP1;P1;durP2;ratioP2;P2;SDS_P1;SDS_P2;PMS_P1;PMS_P2;Temp;Humidity;BMP_temperature;BMP_pressure;BME280_temperature;BME280_humidity;BME280_pressure;Samples;Min_cycle;Max_cycle;Signal;HPM_P1;HPM_P2
2022/01/19 00:00:36;;;;;;;;;;;13.10;95.40;;;;;;5159756;27;19923;-59
2022/01/19 00:03:01;;;;;;;;;;;13.50;95.50;;;;;;5159346;27;19927;-59
2022/01/19 00:05:27;;;;;;;;;;;13.50;95.50;;;;;;5159699;27;19931;-60
2022/01/19 00:07:53;;;;;;;;;;;13.20;95.40;;;;;;5159650;27;20284;-65
2022/01/19 00:10:26;;;;;;;;;;;13.00;95.30;;;;;;5168426;27;19923;-65
2022/01/19 00:12:54;;;;;;;;;;;13.50;95.50;;;;;;5161943;27;19923;-65
2022/01/19 00:15:20;;;;;;;;;;;13.30;95.40;;;;;;5163241;27;19923;-65
2022/01/19 00:17:45;;;;;;;;;;;13.50;95.50;;;;;;5162994;27;19981;-65
2022/01/19 00:20:11;;;;;;;;;;;13.50;95.50;;;;;;5158981;27;19927;-65
2022/01/19 00:22:37;;;;;;;;;;;13.30;95.40;;;;;;5158936;27;20384;-61
2022/01/19 00:25:04;;;;;;;;;;;13.40;95.40;;;;;;5159313;27;19923;-66
2022/01/19 00:27:30;;;;;;;;;;;13.40;95.40;;;;;;5159573;27;19923;-65
2022/01/19 00:33:00;;;;;;;;;;;13.50;95.50;;;;;;5159629;27;19959;-65
2022/01/19 00:35:26;;;;;;;;;;;13.30;95.40;;;;;;5159366;27;20337;-65
2022/01/19 00:37:51;;;;;;;;;;;13.50;95.40;;;;;;5158750;27;20383;-65
2022/01/19 00:40:17;;;;;;;;;;;13.50;95.40;;;;;;5158685;27;20026;-65
2022/01/19 00:42:43;;;;;;;;;;;13.50;95.40;;;;;;5158976;27;19930;-59
2022/01/19 00:45:09;;;;;;;;;;;13.30;95.30;;;;;;5158886;27;19954;-64
2022/01/19 00:47:34;;;;;;;;;;;13.50;95.40;;;;;;5159500;27;20276;-65
2022/01/19 00:50:00;;;;;;;;;;;13.30;95.30;;;;;;5159057;27;19931;-66
2022/01/19 00:52:26;;;;;;;;;;;13.50;95.40;;;;;;5158632;27;19923;-65
2022/01/19 00:54:51;;;;;;;;;;;13.40;95.30;;;;;;5138759;27;19930;-66
2022/01/19 00:57:17;;;;;;;;;;;13.40;95.30;;;;;;5158309;27;19989;-66
2022/01/19 00:59:43;;;;;;;;;;;13.40;95.30;;;;;;5158652;27;19931;-65
2022/01/19 01:02:08;;;;;;;;;;;13.50;95.40;;;;;;5158556;27;19946;-65
2022/01/19 01:04:34;;;;;;;;;;;13.50;95.40;;;;;;5158189;27;19923;-64
2022/01/19 01:07:00;;;;;;;;;;;13.10;95.20;;;;;;5159048;27;19923;-65
2022/01/19 01:09:26;;;;;;;;;;;;;;;;;;5158139;27;20348;-65
2022/01/19 01:12:09;;;;;;;;;;;13.50;95.30;;;;;;5158382;27;20012;-65
2022/01/19 01:20:03;;;;;;;;;;;13.00;95.20;;;;;;5157759;27;19923;-62
2022/01/19 01:22:29;;;;;;;;;;;13.50;95.30;;;;;;5157718;27;19930;-63
2022/01/19 01:24:55;;;;;;;;;;;13.30;95.30;;;;;;5158671;27;19923;-65
2022/01/19 01:27:20;;;;;;;;;;;13.20;95.20;;;;;;5157777;27;19968;-65
2022/01/19 01:29:46;;;;;;;;;;;13.00;95.20;;;;;;5158013;27;19923;-64
2022/01/19 01:32:12;;;;;;;;;;;13.50;95.30;;;;;;5157937;27;19923;-65
2022/01/19 01:34:37;;;;;;;;;;;13.40;95.30;;;;;;5157907;27;19991;-65
2022/01/19 01:37:03;;;;;;;;;;;13.20;95.20;;;;;;5157590;27;19927;-65
2022/01/19 01:39:29;;;;;;;;;;;13.40;95.30;;;;;;5157887;27;19935;-65
2022/01/19 01:41:54;;;;;;;;;;;13.30;94.80;;;;;;5158033;27;20395;-62
2022/01/19 01:44:20;;;;;;;;;;;13.40;95.20;;;;;;5157457;27;20015;-65
2022/01/19 01:46:50;;;;;;;;;;;13.30;95.20;;;;;;5157707;27;19930;-59
2022/01/19 01:49:23;;;;;;;;;;;13.40;95.20;;;;;;5157318;27;19923;-65
2022/01/19 01:54:33;;;;;;;;;;;13.40;95.20;;;;;;5157539;27;19923;-65
2022/01/19 01:56:58;;;;;;;;;;;13.30;95.10;;;;;;5157705;27;20017;-65
2022/01/19 01:59:24;;;;;;;;;;;13.10;95.10;;;;;;5139077;27;19930;-59
2022/01/19 02:01:50;;;;;;;;;;;13.20;95.10;;;;;;5157413;27;20299;-65
2022/01/19 02:04:15;;;;;;;;;;;13.20;94.80;;;;;;5157304;27;19923;-61
2022/01/19 02:07:09;;;;;;;;;;;13.40;95.10;;;;;;5157061;27;19930;-65
2022/01/19 02:09:37;;;;;;;;;;;13.40;95.10;;;;;;5156782;27;19927;-60
2022/01/19 02:23:15;;;;;;;;;;;13.00;95.00;;;;;;5156870;27;20280;-65
2022/01/19 02:25:43;;;;;;;;;;;13.10;95.00;;;;;;5156945;27;19954;-65
2022/01/19 02:42:24;;;;;;;;;;;13.30;95.00;;;;;;5012807;28;19948;-65
2022/01/19 02:49:44;;;;;;;;;;;13.10;94.90;;;;;;5028893;28;19925;-60
2022/01/19 02:52:10;;;;;;;;;;;13.20;95.00;;;;;;5032184;28;19931;-65
2022/01/19 02:54:36;;;;;;;;;;;;;;;;;;5032220;28;20027;-61
2022/01/19 02:57:02;;;;;;;;;;;13.20;94.90;;;;;;5032128;28;19995;-59
2022/01/19 03:10:13;;;;;;;;;;;13.30;94.90;;;;;;5032802;28;19964;-63
2022/01/19 03:12:39;;;;;;;;;;;13.30;94.90;;;;;;5079969;28;19978;-64
2022/01/19 03:15:06;;;;;;;;;;;13.20;94.90;;;;;;5099095;28;19923;-62
2022/01/19 03:17:31;;;;;;;;;;;13.30;94.90;;;;;;5172104;27;20265;-65
2022/01/19 03:19:57;;;;;;;;;;;13.30;94.90;;;;;;5176386;27;19967;-58
2022/01/19 03:22:29;;;;;;;;;;;13.00;94.80;;;;;;5171324;27;19930;-65
2022/01/19 03:24:55;;;;;;;;;;;13.30;94.90;;;;;;5155945;27;19977;-59
2022/01/19 03:27:20;;;;;;;;;;;13.20;94.90;;;;;;5155928;27;19923;-65
2022/01/19 03:29:46;;;;;;;;;;;13.20;94.90;;;;;;5137394;27;20384;-59
2022/01/19 03:32:12;;;;;;;;;;;13.20;94.80;;;;;;5155463;27;20295;-65
2022/01/19 03:34:39;;;;;;;;;;;13.30;94.90;;;;;;5155837;27;19930;-58
2022/01/19 03:37:04;;;;;;;;;;;13.10;94.80;;;;;;5155710;27;19923;-59
2022/01/19 03:39:30;;;;;;;;;;;13.20;94.80;;;;;;5156363;27;19923;-59
2022/01/19 03:41:56;;;;;;;;;;;13.30;94.90;;;;;;5155427;27;19923;-65
2022/01/19 03:44:21;;;;;;;;;;;13.20;94.80;;;;;;5155771;27;19923;-60
2022/01/19 03:46:56;;;;;;;;;;;13.20;94.90;;;;;;5155389;27;20392;-64
2022/01/19 03:49:25;;;;;;;;;;;13.10;94.80;;;;;;5155744;27;19923;-59
2022/01/19 03:51:52;;;;;;;;;;;13.10;94.80;;;;;;5155587;27;19931;-65
2022/01/19 03:54:17;;;;;;;;;;;13.30;94.90;;;;;;5155631;27;19923;-65
2022/01/19 03:56:43;;;;;;;;;;;13.30;94.80;;;;;;5155804;27;20387;-64
2022/01/19 03:59:09;;;;;;;;;;;13.00;94.80;;;;;;5155270;27;19930;-64
2022/01/19 04:01:34;;;;;;;;;;;13.20;94.80;;;;;;5155570;27;19923;-59
2022/01/19 04:06:50;;;;;;;;;;;13.10;94.80;;;;;;5155507;27;20006;-65
2022/01/19 04:09:11;;;;;;;;;;;13.20;94.80;;;;;;5155502;27;20009;-65
2022/01/19 04:11:36;;;;;;;;;;;13.10;94.80;;;;;;5155164;27;20372;-65
2022/01/19 04:16:28;;;;;;;;;;;13.20;94.80;;;;;;5155042;27;19923;-65
2022/01/19 04:19:03;;;;;;;;;;;13.10;94.80;;;;;;5155277;27;19927;-60
2022/01/19 04:21:29;;;;;;;;;;;12.90;94.70;;;;;;5155389;27;19924;-65
2022/01/19 04:23:55;;;;;;;;;;;13.10;94.70;;;;;;5154945;27;19930;-65
2022/01/19 04:26:20;;;;;;;;;;;13.30;94.80;;;;;;5155064;27;19930;-64
2022/01/19 04:28:46;;;;;;;;;;;13.30;94.80;;;;;;5155506;27;20026;-59
2022/01/19 04:31:12;;;;;;;;;;;13.20;94.70;;;;;;5171081;27;19978;-65
2022/01/19 04:33:42;;;;;;;;;;;;;;;;;;5179651;27;20025;-65
2022/01/19 04:36:26;;;;;;;;;;;13.20;94.80;;;;;;5179605;27;19923;-65
2022/01/19 05:03:13;;;;;;;;;;;13.20;94.80;;;;;;5114830;28;19927;-65
2022/01/19 05:05:52;;;;;;;;;;;13.00;94.80;;;;;;5130194;27;20288;-65
2022/01/19 05:08:41;;;;;;;;;;;13.20;94.80;;;;;;5135368;27;19924;-65
2022/01/19 05:13:53;;;;;;;;;;;13.20;94.90;;;;;;5125941;27;19924;-64
2022/01/19 05:16:19;;;;;;;;;;;13.20;94.80;;;;;;5114690;28;19963;-64
2022/01/19 05:18:45;;;;;;;;;;;13.20;94.80;;;;;;5114366;28;20382;-61
2022/01/19 05:21:11;;;;;;;;;;;13.10;94.80;;;;;;5115105;28;19985;-59
2022/01/19 05:23:37;;;;;;;;;;;13.30;94.80;;;;;;5114638;28;19967;-65
2022/01/19 05:26:02;;;;;;;;;;;13.30;94.80;;;;;;5114550;28;20417;-64
2022/01/19 05:28:28;;;;;;;;;;;13.20;94.80;;;;;;5122017;27;19923;-65
2022/01/19 05:30:53;;;;;;;;;;;13.20;94.80;;;;;;5158047;27;19966;-65
2022/01/19 05:33:19;;;;;;;;;;;13.20;94.80;;;;;;5157979;27;19930;-65
2022/01/19 05:35:45;;;;;;;;;;;13.10;94.80;;;;;;5157538;27;20372;-65
2022/01/19 05:38:10;;;;;;;;;;;13.20;94.80;;;;;;5158485;27;19923;-65
2022/01/19 05:40:36;;;;;;;;;;;13.20;94.80;;;;;;5157252;27;20252;-65
2022/01/19 05:43:02;;;;;;;;;;;13.20;94.80;;;;;;5157847;27;20269;-65
2022/01/19 05:45:28;;;;;;;;;;;;;;;;;;5158352;27;19923;-62
2022/01/19 05:47:54;;;;;;;;;;;13.50;94.90;;;;;;5157746;27;19966;-64
2022/01/19 05:50:20;;;;;;;;;;;13.10;94.80;;;;;;5157717;27;19923;-65
2022/01/19 05:52:46;;;;;;;;;;;13.20;94.80;;;;;;5157196;27;19919;-65
2022/01/19 05:55:11;;;;;;;;;;;13.30;94.80;;;;;;5158068;27;19923;-65
2022/01/19 05:57:37;;;;;;;;;;;13.40;94.90;;;;;;5157555;27;20402;-65
2022/01/19 06:00:04;;;;;;;;;;;13.10;94.80;;;;;;5157152;27;19923;-65
2022/01/19 06:02:29;;;;;;;;;;;13.00;94.80;;;;;;5157092;27;19924;-65
2022/01/19 06:04:55;;;;;;;;;;;13.20;94.80;;;;;;5157402;27;19926;-64
2022/01/19 06:07:28;;;;;;;;;;;13.10;94.80;;;;;;5157338;27;19968;-65
2022/01/19 06:10:03;;;;;;;;;;;13.30;94.90;;;;;;5156992;27;19927;-61
2022/01/19 06:12:28;;;;;;;;;;;13.30;94.80;;;;;;5162516;27;20261;-64
2022/01/19 06:14:54;;;;;;;;;;;13.20;94.80;;;;;;5159240;27;19924;-65
2022/01/19 06:17:20;;;;;;;;;;;13.00;94.80;;;;;;5156812;27;19946;-65
2022/01/19 06:19:48;;;;;;;;;;;12.90;94.70;;;;;;5156853;27;19966;-64
2022/01/19 06:22:14;;;;;;;;;;;13.20;94.80;;;;;;5156955;27;19933;-65
2022/01/19 06:24:40;;;;;;;;;;;13.60;94.90;;;;;;5169159;27;19923;-65
2022/01/19 06:27:05;;;;;;;;;;;13.40;94.90;;;;;;5157378;27;20378;-65
2022/01/19 06:29:31;;;;;;;;;;;13.10;94.80;;;;;;5157592;27;19969;-65
2022/01/19 06:31:57;;;;;;;;;;;13.20;94.80;;;;;;5156784;27;19924;-64
2022/01/19 06:34:22;;;;;;;;;;;13.20;94.80;;;;;;5156504;27;20010;-63
2022/01/19 06:36:51;;;;;;;;;;;13.10;94.80;;;;;;5157212;27;19922;-64
2022/01/19 06:39:17;;;;;;;;;;;13.20;94.80;;;;;;5156704;27;20271;-65
2022/01/19 06:41:42;;;;;;;;;;;13.10;94.80;;;;;;5156655;27;19923;-65
2022/01/19 06:44:08;;;;;;;;;;;13.40;94.80;;;;;;5156656;27;19923;-65
2022/01/19 06:46:34;;;;;;;;;;;13.30;94.80;;;;;;5157128;27;19940;-65
2022/01/19 06:49:00;;;;;;;;;;;13.30;94.80;;;;;;5157065;27;20424;-65
2022/01/19 06:51:25;;;;;;;;;;;13.20;94.80;;;;;;5156464;27;19923;-64
2022/01/19 06:53:52;;;;;;;;;;;13.30;94.80;;;;;;5155430;27;20369;-65
2022/01/19 06:56:18;;;;;;;;;;;13.40;94.80;;;;;;5156351;27;19923;-63
2022/01/19 06:58:43;;;;;;;;;;;13.30;94.80;;;;;;5156351;27;19923;-65
2022/01/19 07:01:09;;;;;;;;;;;13.30;94.80;;;;;;5156303;27;19923;-65
2022/01/19 07:03:35;;;;;;;;;;;13.20;94.70;;;;;;5156759;27;20416;-65
2022/01/19 07:06:01;;;;;;;;;;;13.10;94.80;;;;;;5155885;27;19923;-66
2022/01/19 07:08:27;;;;;;;;;;;13.20;94.80;;;;;;5156197;27;19963;-65
2022/01/19 07:10:52;;;;;;;;;;;13.40;94.80;;;;;;5155831;27;19930;-65
2022/01/19 07:13:18;;;;;;;;;;;13.10;94.80;;;;;;5155895;27;19923;-65
2022/01/19 07:15:44;;;;;;;;;;;13.30;94.80;;;;;;5155665;27;19978;-64
2022/01/19 07:18:10;;;;;;;;;;;13.30;94.80;;;;;;5137301;27;20015;-65
2022/01/19 07:20:35;;;;;;;;;;;13.00;94.70;;;;;;5121185;27;19923;-65
2022/01/19 07:23:01;;;;;;;;;;;13.30;94.80;;;;;;5133970;27;19928;-64
2022/01/19 07:25:28;;;;;;;;;;;13.10;94.70;;;;;;5135269;27;19930;-65
2022/01/19 07:27:53;;;;;;;;;;;13.30;94.80;;;;;;5135271;27;19928;-64
2022/01/19 07:30:19;;;;;;;;;;;13.50;94.80;;;;;;5134925;27;19930;-65
2022/01/19 07:32:48;;;;;;;;;;;13.20;94.80;;;;;;5135141;27;19923;-65
2022/01/19 07:35:14;;;;;;;;;;;13.30;94.80;;;;;;5134829;27;19934;-64
2022/01/19 07:37:40;;;;;;;;;;;13.30;94.80;;;;;;5133956;27;19982;-64
2022/01/19 07:40:06;;;;;;;;;;;13.20;94.70;;;;;;5135139;27;19976;-65
2022/01/19 07:42:32;;;;;;;;;;;13.40;94.80;;;;;;5135127;27;19931;-65
2022/01/19 07:44:58;;;;;;;;;;;13.40;94.80;;;;;;5135051;27;19924;-65
2022/01/19 07:47:23;;;;;;;;;;;13.10;94.70;;;;;;5135064;27;20260;-64
2022/01/19 07:49:49;;;;;;;;;;;13.30;94.70;;;;;;5135054;27;19931;-65
2022/01/19 07:52:15;;;;;;;;;;;13.30;94.70;;;;;;5134875;27;19923;-66
2022/01/19 07:54:40;;;;;;;;;;;13.20;94.70;;;;;;5134358;27;19946;-65
2022/01/19 07:57:06;;;;;;;;;;;13.50;94.70;;;;;;5134881;27;20023;-65
2022/01/19 07:59:32;;;;;;;;;;;13.40;94.70;;;;;;5134901;27;20369;-64
2022/01/19 08:01:58;;;;;;;;;;;13.10;94.60;;;;;;5134527;27;19919;-65
2022/01/19 08:04:23;;;;;;;;;;;13.20;94.70;;;;;;5136560;27;20026;-65
2022/01/19 08:06:54;;;;;;;;;;;13.30;94.70;;;;;;5139039;27;19966;-65
2022/01/19 08:12:43;;;;;;;;;;;13.10;94.60;;;;;;5122307;27;19918;-66
2022/01/19 08:15:09;;;;;;;;;;;13.10;94.60;;;;;;5117893;28;19928;-66
2022/01/19 08:17:35;;;;;;;;;;;13.20;94.60;;;;;;5117051;28;19924;-65
2022/01/19 08:20:00;;;;;;;;;;;13.30;94.60;;;;;;5149062;27;19930;-65
2022/01/19 08:22:26;;;;;;;;;;;13.40;94.60;;;;;;5140480;27;19958;-63
2022/01/19 08:24:52;;;;;;;;;;;13.30;94.60;;;;;;5141525;27;19935;-66
2022/01/19 08:27:18;;;;;;;;;;;;;;;;;;5158964;27;19929;-67
2022/01/19 08:29:43;;;;;;;;;;;13.20;94.60;;;;;;5175460;27;19934;-65
2022/01/19 08:32:10;;;;;;;;;;;13.30;94.60;;;;;;5179790;27;19923;-65
2022/01/19 08:34:36;;;;;;;;;;;13.20;94.60;;;;;;5179718;27;19946;-65
2022/01/19 08:37:01;;;;;;;;;;;13.00;94.50;;;;;;5180246;27;19922;-65
2022/01/19 08:42:49;;;;;;;;;;;13.20;94.50;;;;;;5179704;27;19917;-65
2022/01/19 08:45:15;;;;;;;;;;;13.10;94.50;;;;;;5178976;27;19923;-64
2022/01/19 08:47:40;;;;;;;;;;;13.10;94.50;;;;;;5179724;27;19929;-65
2022/01/19 08:50:07;;;;;;;;;;;12.90;94.40;;;;;;5179775;27;19922;-65
2022/01/19 08:52:33;;;;;;;;;;;13.30;94.50;;;;;;5179638;27;19930;-61
2022/01/19 08:54:59;;;;;;;;;;;13.20;94.50;;;;;;5179597;27;19969;-63
2022/01/19 08:57:25;;;;;;;;;;;13.20;94.50;;;;;;5179631;27;20327;-65
2022/01/19 08:59:50;;;;;;;;;;;13.10;94.40;;;;;;5179576;27;20376;-65
2022/01/19 09:02:16;;;;;;;;;;;13.40;94.50;;;;;;5178259;27;19930;-65
2022/01/19 09:04:42;;;;;;;;;;;13.20;94.40;;;;;;5179166;27;19926;-64
2022/01/19 09:07:08;;;;;;;;;;;12.80;94.30;;;;;;5179414;27;19929;-65
2022/01/19 09:09:33;;;;;;;;;;;13.20;94.40;;;;;;5179140;27;20402;-65
2022/01/19 09:11:59;;;;;;;;;;;13.10;94.40;;;;;;5168340;27;20030;-66
2022/01/19 09:14:25;;;;;;;;;;;13.00;94.30;;;;;;5158111;27;19923;-65
2022/01/19 09:16:50;;;;;;;;;;;12.90;94.30;;;;;;5157306;27;19923;-65
2022/01/19 09:19:17;;;;;;;;;;;13.20;94.30;;;;;;5158242;27;20284;-65
2022/01/19 09:21:42;;;;;;;;;;;13.00;94.30;;;;;;5158172;27;20467;-66
2022/01/19 09:24:10;;;;;;;;;;;12.80;94.20;;;;;;5158290;27;19965;-65
2022/01/19 09:26:36;;;;;;;;;;;13.20;94.30;;;;;;5159671;27;19976;-59
2022/01/19 09:29:02;;;;;;;;;;;13.00;94.20;;;;;;5169413;27;19974;-65
2022/01/19 09:31:28;;;;;;;;;;;13.10;94.30;;;;;;5158043;27;19924;-65
2022/01/19 09:34:08;;;;;;;;;;;13.00;94.20;;;;;;5157670;27;19923;-60
2022/01/19 09:36:35;;;;;;;;;;;12.90;94.10;;;;;;5158293;27;19975;-59
2022/01/19 09:39:05;;;;;;;;;;;13.10;94.20;;;;;;5157956;27;20293;-65
2022/01/19 09:41:31;;;;;;;;;;;13.30;94.20;;;;;;5157868;27;20286;-60
2022/01/19 09:43:56;;;;;;;;;;;13.10;94.10;;;;;;5157551;27;19923;-65
2022/01/19 09:46:22;;;;;;;;;;;13.10;94.10;;;;;;5158325;27;19928;-65
2022/01/19 09:48:48;;;;;;;;;;;13.10;94.10;;;;;;5157434;27;19930;-59
2022/01/19 09:51:14;;;;;;;;;;;13.00;94.00;;;;;;5157695;27;19946;-65
2022/01/19 09:53:40;;;;;;;;;;;13.10;94.00;;;;;;5158076;27;19923;-64
2022/01/19 09:56:06;;;;;;;;;;;13.00;93.90;;;;;;5157553;27;19946;-64
2022/01/19 09:58:32;;;;;;;;;;;13.00;93.90;;;;;;5157532;27;19924;-66
2022/01/19 10:00:57;;;;;;;;;;;12.90;93.90;;;;;;5157231;27;19923;-65
2022/01/19 10:03:24;;;;;;;;;;;13.30;93.90;;;;;;5157472;27;20348;-59
2022/01/19 10:05:52;;;;;;;;;;;13.20;93.90;;;;;;5157103;27;19923;-64
2022/01/19 10:08:25;;;;;;;;;;;13.20;93.90;;;;;;5157335;27;19931;-64
2022/01/19 10:11:03;;;;;;;;;;;13.10;93.80;;;;;;5139025;27;20018;-65
2022/01/19 10:19:03;;;;;;;;;;;;;;;;;;5156581;27;19924;-63
2022/01/19 10:21:30;;;;;;;;;;;13.00;93.70;;;;;;5156951;27;19923;-65
2022/01/19 10:23:57;;;;;;;;;;;13.20;93.80;;;;;;5156725;27;19980;-65
2022/01/19 10:26:27;;;;;;;;;;;13.30;93.80;;;;;;5156886;27;19927;-59
2022/01/19 10:28:56;;;;;;;;;;;13.20;93.80;;;;;;5174387;27;19934;-65
2022/01/19 10:31:22;;;;;;;;;;;13.10;93.80;;;;;;5177426;27;19923;-65
2022/01/19 10:34:06;;;;;;;;;;;13.10;93.80;;;;;;5177683;27;19975;-64
2022/01/19 10:36:45;;;;;;;;;;;13.10;93.80;;;;;;5177574;27;19923;-65
2022/01/19 10:39:11;;;;;;;;;;;13.10;93.80;;;;;;5177664;27;20273;-65
2022/01/19 10:41:43;;;;;;;;;;;13.00;93.80;;;;;;5158386;27;19919;-65
2022/01/19 10:44:09;;;;;;;;;;;13.30;93.80;;;;;;5157753;27;19927;-65
2022/01/19 10:46:35;;;;;;;;;;;13.00;93.70;;;;;;5177098;27;19926;-65
2022/01/19 10:49:00;;;;;;;;;;;13.00;93.70;;;;;;5177435;27;19923;-60
2022/01/19 10:51:28;;;;;;;;;;;13.10;93.80;;;;;;5177195;27;20295;-65
2022/01/19 10:54:13;;;;;;;;;;;13.10;93.80;;;;;;5177283;27;19922;-65
2022/01/19 10:56:39;;;;;;;;;;;13.20;93.80;;;;;;5177188;27;20291;-65
2022/01/19 10:59:06;;;;;;;;;;;13.10;93.80;;;;;;5177256;27;19923;-65
2022/01/19 11:01:45;;;;;;;;;;;13.20;93.80;;;;;;5176317;27;19977;-64
2022/01/19 11:04:20;;;;;;;;;;;12.90;93.70;;;;;;5177735;27;19922;-65
2022/01/19 11:06:46;;;;;;;;;;;;;;;;;;5177049;27;19927;-66
2022/01/19 11:09:14;;;;;;;;;;;13.00;93.80;;;;;;5176759;27;19922;-65
2022/01/19 11:11:45;;;;;;;;;;;13.10;93.80;;;;;;5160558;27;19974;-58
2022/01/19 11:14:13;;;;;;;;;;;12.90;93.80;;;;;;5137589;27;19923;-64
2022/01/19 11:16:39;;;;;;;;;;;13.20;93.90;;;;;;5156068;27;19923;-65
2022/01/19 11:19:05;;;;;;;;;;;12.90;93.80;;;;;;5156051;27;19923;-65
2022/01/19 11:21:32;;;;;;;;;;;13.10;93.80;;;;;;5155924;27;20027;-64
2022/01/19 11:24:16;;;;;;;;;;;13.00;93.80;;;;;;5137604;27;19923;-63
2022/01/19 11:26:42;;;;;;;;;;;13.10;93.80;;;;;;5137536;27;20329;-65
2022/01/19 11:29:12;;;;;;;;;;;13.10;93.90;;;;;;5137557;27;19920;-65
2022/01/19 11:31:38;;;;;;;;;;;13.10;93.90;;;;;;5155956;27;20295;-65
2022/01/19 11:34:04;;;;;;;;;;;12.90;93.80;;;;;;5155859;27;19919;-64
2022/01/19 11:36:31;;;;;;;;;;;13.00;93.80;;;;;;5156303;27;19923;-65
2022/01/19 11:39:03;;;;;;;;;;;12.90;93.80;;;;;;5155293;27;20288;-63
2022/01/19 11:41:47;;;;;;;;;;;12.90;93.80;;;;;;5155457;27;19975;-66
2022/01/19 11:44:20;;;;;;;;;;;13.00;93.90;;;;;;5155458;27;19927;-64
2022/01/19 11:46:48;;;;;;;;;;;12.80;93.80;;;;;;5155766;27;19927;-63
2022/01/19 11:49:14;;;;;;;;;;;13.10;93.90;;;;;;5155725;27;19975;-64
2022/01/19 11:51:43;;;;;;;;;;;13.10;93.90;;;;;;5155590;27;19931;-65
2022/01/19 11:54:12;;;;;;;;;;;13.10;93.90;;;;;;5155971;27;19923;-65
2022/01/19 11:56:56;;;;;;;;;;;13.10;93.90;;;;;;5155599;27;20360;-65
2022/01/19 11:59:25;;;;;;;;;;;13.20;93.90;;;;;;5155656;27;20284;-66
2022/01/19 12:01:50;;;;;;;;;;;13.00;93.90;;;;;;5155529;27;19918;-64
2022/01/19 12:04:20;;;;;;;;;;;12.80;93.80;;;;;;5155611;27;20395;-65
2022/01/19 12:06:47;;;;;;;;;;;12.80;93.80;;;;;;5155224;27;19930;-61
2022/01/19 12:09:13;;;;;;;;;;;13.00;93.90;;;;;;5155731;27;19934;-65
2022/01/19 12:11:44;;;;;;;;;;;13.30;94.00;;;;;;5155147;27;19919;-65
2022/01/19 12:14:23;;;;;;;;;;;13.10;93.90;;;;;;5155489;27;19930;-63
2022/01/19 12:16:57;;;;;;;;;;;13.00;93.90;;;;;;5155396;27;20288;-65
2022/01/19 12:19:24;;;;;;;;;;;13.20;93.90;;;;;;5154939;27;19927;-64
2022/01/19 12:21:51;;;;;;;;;;;13.00;93.80;;;;;;5155302;27;19923;-65
2022/01/19 12:24:21;;;;;;;;;;;13.30;93.90;;;;;;5155037;27;19927;-65
2022/01/19 12:27:06;;;;;;;;;;;13.20;93.90;;;;;;5163080;27;19962;-65
2022/01/19 12:29:36;;;;;;;;;;;13.20;93.90;;;;;;5176214;27;19922;-65
2022/01/19 12:32:02;;;;;;;;;;;13.20;94.00;;;;;;5176131;27;19930;-65
2022/01/19 12:34:44;;;;;;;;;;;13.20;93.90;;;;;;5157291;27;19923;-65
2022/01/19 12:37:10;;;;;;;;;;;;;;;;;;5163071;27;19923;-66
2022/01/19 12:39:36;;;;;;;;;;;13.20;94.00;;;;;;5175578;27;19969;-65
2022/01/19 12:42:23;;;;;;;;;;;13.10;93.90;;;;;;5176094;27;19934;-65
2022/01/19 12:44:49;;;;;;;;;;;13.30;94.00;;;;;;5158414;27;20018;-65
2022/01/19 12:47:29;;;;;;;;;;;13.10;94.00;;;;;;5154859;27;19983;-64
2022/01/19 12:49:56;;;;;;;;;;;12.90;93.90;;;;;;5154859;27;20418;-65
2022/01/19 12:52:22;;;;;;;;;;;13.30;94.00;;;;;;5158022;27;20292;-65
2022/01/19 12:54:48;;;;;;;;;;;12.90;93.90;;;;;;5158816;27;19968;-65
2022/01/19 12:57:15;;;;;;;;;;;13.00;94.00;;;;;;5158698;27;20310;-65
2022/01/19 12:59:41;;;;;;;;;;;13.00;94.00;;;;;;5158727;27;20348;-64
2022/01/19 13:02:07;;;;;;;;;;;13.10;94.00;;;;;;5159198;27;19931;-63
2022/01/19 13:04:34;;;;;;;;;;;13.00;94.00;;;;;;5158664;27;20314;-65
2022/01/19 13:07:00;;;;;;;;;;;;;;;;;;5140110;27;20288;-65
2022/01/19 13:09:36;;;;;;;;;;;13.20;94.00;;;;;;5158444;27;19946;-64
2022/01/19 13:12:12;;;;;;;;;;;12.90;94.00;;;;;;5158521;27;19923;-65
2022/01/19 13:14:38;;;;;;;;;;;13.00;94.00;;;;;;5158477;27;19923;-65
2022/01/19 13:17:03;;;;;;;;;;;13.20;94.00;;;;;;5141909;27;19993;-64
2022/01/19 13:19:29;;;;;;;;;;;13.10;94.00;;;;;;5179025;27;19923;-65
2022/01/19 13:21:55;;;;;;;;;;;;;;;;;;5178723;27;19922;-66
2022/01/19 13:24:31;;;;;;;;;;;13.20;94.10;;;;;;5178802;27;19923;-65
2022/01/19 13:26:59;;;;;;;;;;;13.10;94.10;;;;;;5178758;27;19930;-65
2022/01/19 13:29:25;;;;;;;;;;;13.20;94.10;;;;;;5178719;27;19922;-65
2022/01/19 13:31:51;;;;;;;;;;;13.10;94.10;;;;;;5179528;27;20374;-65
2022/01/19 13:34:17;;;;;;;;;;;13.10;94.10;;;;;;5178050;27;19930;-64
2022/01/19 13:36:42;;;;;;;;;;;13.30;94.10;;;;;;5159614;27;20325;-65
2022/01/19 13:39:08;;;;;;;;;;;13.10;94.10;;;;;;5178833;27;19926;-65
2022/01/19 13:41:40;;;;;;;;;;;13.10;94.10;;;;;;5178746;27;19929;-65
2022/01/19 13:44:08;;;;;;;;;;;13.00;94.00;;;;;;5178465;27;19923;-64
2022/01/19 13:46:38;;;;;;;;;;;13.30;94.10;;;;;;5160530;27;19923;-65
2022/01/19 13:49:04;;;;;;;;;;;13.10;94.10;;;;;;5178654;27;19968;-65
2022/01/19 13:51:30;;;;;;;;;;;13.10;94.10;;;;;;5177281;27;19922;-66
2022/01/19 13:53:56;;;;;;;;;;;12.80;94.00;;;;;;5160004;27;19965;-65
2022/01/19 13:56:26;;;;;;;;;;;13.30;94.20;;;;;;5159261;27;19923;-66
2022/01/19 13:59:18;;;;;;;;;;;13.30;94.20;;;;;;5178478;27;19929;-65
2022/01/19 14:01:49;;;;;;;;;;;13.10;94.20;;;;;;5172863;27;20022;-65
2022/01/19 14:04:15;;;;;;;;;;;12.80;94.10;;;;;;5160551;27;19968;-64
2022/01/19 14:06:41;;;;;;;;;;;13.10;94.20;;;;;;5178284;27;19919;-65
2022/01/19 14:09:10;;;;;;;;;;;13.10;94.20;;;;;;5176671;27;20375;-65
2022/01/19 14:11:36;;;;;;;;;;;13.10;94.20;;;;;;5178175;27;19965;-65
2022/01/19 14:14:02;;;;;;;;;;;13.00;94.20;;;;;;5178158;27;20374;-65
2022/01/19 14:16:31;;;;;;;;;;;13.50;94.30;;;;;;5178011;27;19923;-65
2022/01/19 14:19:15;;;;;;;;;;;13.10;94.20;;;;;;5177819;27;19923;-65
2022/01/19 14:21:58;;;;;;;;;;;13.10;94.30;;;;;;5177891;27;19923;-65
2022/01/19 14:24:24;;;;;;;;;;;13.10;94.30;;;;;;5177612;27;20405;-65
2022/01/19 14:26:50;;;;;;;;;;;13.00;94.20;;;;;;5176704;27;19981;-65
2022/01/19 14:29:16;;;;;;;;;;;12.90;94.30;;;;;;5177744;27;20010;-65
2022/01/19 14:31:48;;;;;;;;;;;12.80;94.20;;;;;;5177709;27;20372;-65
2022/01/19 14:34:14;;;;;;;;;;;13.00;94.30;;;;;;5177708;27;19923;-65
2022/01/19 14:36:40;;;;;;;;;;;13.00;94.30;;;;;;5177295;27;20470;-65
2022/01/19 14:39:06;;;;;;;;;;;13.00;94.10;;;;;;5177298;27;19929;-65
2022/01/19 14:41:36;;;;;;;;;;;13.30;94.40;;;;;;5177602;27;19984;-65
2022/01/19 14:44:19;;;;;;;;;;;13.00;94.30;;;;;;5176692;27;19923;-65
2022/01/19 14:47:05;;;;;;;;;;;12.90;94.30;;;;;;5177169;27;19966;-65
2022/01/19 14:49:33;;;;;;;;;;;13.00;94.40;;;;;;5177110;27;19975;-65
2022/01/19 14:52:00;;;;;;;;;;;12.90;94.40;;;;;;5177258;27;19966;-65
2022/01/19 14:54:25;;;;;;;;;;;13.00;94.40;;;;;;5177347;27;20287;-65
2022/01/19 14:56:51;;;;;;;;;;;13.00;94.40;;;;;;5176936;27;19923;-66
2022/01/19 14:59:17;;;;;;;;;;;12.90;94.40;;;;;;5176062;27;19923;-65
2022/01/19 15:01:44;;;;;;;;;;;12.90;94.40;;;;;;5176854;27;20026;-65
2022/01/19 15:04:10;;;;;;;;;;;13.10;94.50;;;;;;5176897;27;19923;-65
2022/01/19 15:06:36;;;;;;;;;;;13.00;94.50;;;;;;5177674;27;19929;-65
2022/01/19 15:09:02;;;;;;;;;;;13.10;94.50;;;;;;5165818;27;19930;-66
2022/01/19 15:11:28;;;;;;;;;;;12.90;94.40;;;;;;5156192;27;19975;-65
2022/01/19 15:13:54;;;;;;;;;;;13.30;94.60;;;;;;5155072;27;20364;-65
2022/01/19 15:16:20;;;;;;;;;;;13.40;94.60;;;;;;5156619;27;20279;-65
2022/01/19 15:18:46;;;;;;;;;;;13.10;94.60;;;;;;5156061;27;19927;-65
2022/01/19 15:21:12;;;;;;;;;;;13.00;94.50;;;;;;5155481;27;20313;-66
2022/01/19 15:23:37;;;;;;;;;;;13.30;94.60;;;;;;5156060;27;19922;-65
2022/01/19 15:26:03;;;;;;;;;;;13.10;94.60;;;;;;5155959;27;19998;-63
2022/01/19 15:28:29;;;;;;;;;;;12.80;94.50;;;;;;5155670;27;19923;-66
2022/01/19 15:30:54;;;;;;;;;;;13.00;94.40;;;;;;5155960;27;20014;-66
2022/01/19 15:33:20;;;;;;;;;;;12.90;94.60;;;;;;5156111;27;19944;-65
2022/01/19 15:35:47;;;;;;;;;;;13.10;94.70;;;;;;5155829;27;19923;-65
2022/01/19 15:38:13;;;;;;;;;;;13.00;94.70;;;;;;5155550;27;19923;-65
2022/01/19 15:40:39;;;;;;;;;;;12.90;94.70;;;;;;5155502;27;19923;-64
2022/01/19 15:43:05;;;;;;;;;;;13.10;94.70;;;;;;5166940;27;19923;-65
2022/01/19 15:45:31;;;;;;;;;;;13.00;94.70;;;;;;5176615;27;19968;-65
2022/01/19 15:47:58;;;;;;;;;;;13.10;94.70;;;;;;5176608;27;19927;-65
2022/01/19 15:50:23;;;;;;;;;;;13.00;94.70;;;;;;5171361;27;20014;-65
2022/01/19 15:52:49;;;;;;;;;;;12.90;94.70;;;;;;5155601;27;19966;-65
2022/01/19 15:55:15;;;;;;;;;;;13.10;94.80;;;;;;5136571;27;20030;-65
2022/01/19 15:57:40;;;;;;;;;;;12.80;94.70;;;;;;5155655;27;19923;-65
2022/01/19 16:00:07;;;;;;;;;;;13.20;94.80;;;;;;5155658;27;20279;-64